Time;durP1;ratioP1;P1;durP2;ratioP2;P2;SDS_P1;SDS_P2;PMS_P1;PMS_P2;Temp;Humidity;BMP_temperature;BMP_pressure;BME280_temperature;BME280_humidity;BME280_pressure;Samples;Min_cycle;Max_cycle;Signal;HPM_P1;HPM_P2
2022/09/18 00:01:35;;;;;;;6.15;1.27;;;10.30;99.90;;;;;;4957210;28;20028;-78
2022/09/18 00:04:02;;;;;;;6.90;1.55;;;10.30;99.90;;;;;;4943328;28;20035;-78
2022/09/18 00:06:29;;;;;;;4.72;1.50;;;10.20;99.90;;;;;;4923460;28;20040;-78
2022/09/18 00:08:57;;;;;;;6.45;1.40;;;10.30;99.90;;;;;;4949575;28;20067;-78
2022/09/18 00:11:23;;;;;;;13.70;1.80;;;10.20;99.90;;;;;;4961795;28;20034;-78
2022/09/18 00:13:49;;;;;;;10.52;2.17;;;10.30;99.90;;;;;;4940683;28;20576;-78
2022/09/18 00:16:15;;;;;;;4.57;1.40;;;10.30;99.90;;;;;;4962052;28;20035;-78
2022/09/18 00:18:41;;;;;;;6.35;1.45;;;10.30;99.90;;;;;;4945146;28;20069;-78
2022/09/18 00:21:08;;;;;;;10.93;2.10;;;10.30;99.90;;;;;;4950894;28;20069;-78
2022/09/18 00:23:34;;;;;;;5.57;1.60;;;10.30;99.90;;;;;;4949019;28;20384;-78
2022/09/18 00:26:00;;;;;;;6.18;1.30;;;10.30;99.90;;;;;;4949171;28;20038;-78
2022/09/18 00:28:25;;;;;;;5.68;1.10;;;10.30;99.90;;;;;;4929386;28;20046;-78
2022/09/18 00:30:52;;;;;;;10.23;1.35;;;10.30;99.90;;;;;;4930174;28;20043;-78
2022/09/18 00:33:18;;;;;;;9.07;1.85;;;10.30;99.90;;;;;;4929831;28;20066;-78
2022/09/18 00:35:44;;;;;;;10.90;2.80;;;10.30;99.90;;;;;;4945227;28;20157;-78
2022/09/18 00:38:10;;;;;;;7.72;2.25;;;10.30;99.90;;;;;;4943444;28;20035;-78
2022/09/18 00:40:35;;;;;;;4.90;2.20;;;10.30;99.90;;;;;;4947029;28;20573;-78
2022/09/18 00:43:19;;;;;;;4.35;1.70;;;10.30;99.90;;;;;;4926824;28;20522;-78
2022/09/18 00:45:48;;;;;;;9.25;2.58;;;10.30;99.90;;;;;;4965420;28;20038;-78
2022/09/18 00:48:14;;;;;;;8.82;1.73;;;10.30;99.90;;;;;;4929650;28;20042;-78
2022/09/18 00:50:39;;;;;;;8.23;2.72;;;10.30;99.90;;;;;;4949784;28;20031;-78
2022/09/18 00:53:05;;;;;;;6.40;1.85;;;10.30;99.90;;;;;;4943621;28;20031;-78
2022/09/18 00:55:31;;;;;;;8.82;2.17;;;10.30;99.90;;;;;;4944162;28;20043;-78
2022/09/18 00:57:58;;;;;;;4.38;1.70;;;10.30;99.90;;;;;;4943893;28;20043;-78
2022/09/18 01:00:23;;;;;;;6.57;1.80;;;10.30;99.90;;;;;;4966022;28;20066;-79
2022/09/18 01:02:49;;;;;;;8.73;2.30;;;10.30;99.90;;;;;;4940118;28;20069;-78
2022/09/18 01:05:28;;;;;;;6.80;2.10;;;10.40;99.90;;;;;;4965402;28;20027;-78
2022/09/18 01:08:07;;;;;;;6.63;1.65;;;10.30;99.90;;;;;;4958772;28;20067;-78
2022/09/18 01:10:51;;;;;;;6.70;1.55;;;10.30;99.90;;;;;;4961206;28;20031;-78
2022/09/18 01:13:46;;;;;;;12.65;2.60;;;10.30;99.90;;;;;;4960257;28;20109;-78
2022/09/18 01:16:25;;;;;;;6.65;2.00;;;10.40;99.90;;;;;;4964229;28;20494;-78
2022/09/18 01:19:18;;;;;;;6.75;1.73;;;10.40;99.90;;;;;;4928505;28;20046;-78
2022/09/18 01:21:56;;;;;;;7.97;2.10;;;10.30;99.90;;;;;;4959365;28;20483;-78
2022/09/18 01:24:54;;;;;;;9.57;2.00;;;10.30;99.90;;;;;;4948848;28;20027;-78
2022/09/18 01:27:40;;;;;;;2.40;0.95;;;10.30;99.90;;;;;;4940623;28;20659;-78
2022/09/18 01:30:07;;;;;;;12.00;2.15;;;10.30;99.90;;;;;;4963006;28;20483;-78
2022/09/18 01:32:42;;;;;;;4.78;2.30;;;10.40;99.90;;;;;;4960941;28;20023;-78
2022/09/18 01:35:17;;;;;;;8.60;1.95;;;10.40;99.90;;;;;;4932550;28;20046;-78
2022/09/18 01:37:53;;;;;;;9.13;1.80;;;10.40;99.90;;;;;;4927128;29;20415;-78
2022/09/18 01:40:35;;;;;;;8.98;2.17;;;10.40;99.90;;;;;;4945380;28;20031;-78
2022/09/18 01:43:03;;;;;;;4.28;1.35;;;10.40;99.90;;;;;;4943129;28;20119;-78
2022/09/18 01:45:34;;;;;;;6.97;1.73;;;10.40;99.90;;;;;;4925292;28;20031;-78
2022/09/18 01:48:02;;;;;;;6.57;1.70;;;10.40;99.90;;;;;;4938597;28;20074;-78
2022/09/18 01:50:29;;;;;;;11.70;1.98;;;10.40;99.90;;;;;;4939610;28;20114;-77
2022/09/18 01:53:15;;;;;;;7.60;1.63;;;10.40;99.90;;;;;;4924113;28;20047;-77
2022/09/18 01:55:41;;;;;;;7.38;2.03;;;10.40;99.90;;;;;;4924232;28;20043;-77
2022/09/18 01:58:08;;;;;;;4.93;1.70;;;10.40;99.90;;;;;;4927454;28;20044;-77
2022/09/18 02:00:40;;;;;;;8.95;1.90;;;10.40;99.90;;;;;;4945042;28;20175;-77
2022/09/18 02:03:10;;;;;;;4.40;1.70;;;10.40;99.90;;;;;;4938695;28;20496;-78
2022/09/18 02:05:45;;;;;;;4.32;1.45;;;10.40;99.90;;;;;;4931547;28;20034;-77
2022/09/18 02:08:18;;;;;;;13.20;2.03;;;10.40;99.90;;;;;;4917138;28;20078;-77
2022/09/18 02:10:46;;;;;;;5.93;1.90;;;10.40;99.90;;;;;;4940833;28;20036;-79
2022/09/18 02:13:14;;;;;;;6.28;1.58;;;10.40;99.90;;;;;;4912804;28;20065;-77
2022/09/18 02:15:40;;;;;;;8.25;2.10;;;10.40;99.90;;;;;;4943129;28;20062;-77
2022/09/18 02:18:08;;;;;;;5.78;2.05;;;10.40;99.90;;;;;;4921414;28;20074;-77
2022/09/18 02:20:34;;;;;;;8.55;2.38;;;10.40;99.90;;;;;;4939251;28;20554;-77
2022/09/18 02:23:03;;;;;;;8.77;2.47;;;10.40;99.90;;;;;;4942915;28;20094;-78
2022/09/18 02:25:49;;;;;;;5.55;2.13;;;10.40;99.90;;;;;;4939672;28;20442;-77
2022/09/18 02:28:16;;;;;;;9.18;1.92;;;10.40;99.90;;;;;;4927421;29;20043;-77
2022/09/18 02:30:42;;;;;;;6.65;1.63;;;10.40;99.90;;;;;;4938354;28;20466;-77
2022/09/18 02:33:30;;;;;;;6.72;2.17;;;10.40;99.90;;;;;;4928739;28;20039;-78
2022/09/18 02:36:24;;;;;;;7.93;3.15;;;10.40;99.90;;;;;;4927888;28;20038;-78
2022/09/18 02:39:06;;;;;;;7.93;2.08;;;10.50;99.90;;;;;;4974289;28;20126;-78
2022/09/18 02:41:43;;;;;;;6.28;2.17;;;10.40;99.90;;;;;;4929434;28;20091;-77
2022/09/18 02:44:19;;;;;;;4.95;2.60;;;10.40;99.90;;;;;;4963903;28;20098;-77
2022/09/18 02:47:07;;;;;;;10.25;2.17;;;10.40;99.90;;;;;;4943423;28;20035;-78
2022/09/18 02:49:57;;;;;;;8.68;3.15;;;10.40;99.90;;;;;;4948171;28;20046;-77
2022/09/18 02:52:23;;;;;;;7.75;2.83;;;10.40;99.90;;;;;;4961756;28;20027;-77
2022/09/18 02:55:04;;;;;;;8.20;3.20;;;10.40;99.90;;;;;;4961813;28;20104;-77
2022/09/18 02:57:59;;;;;;;6.00;2.50;;;10.40;99.90;;;;;;4946480;28;20506;-76
2022/09/18 03:00:25;;;;;;;7.57;2.25;;;10.50;99.90;;;;;;4961765;28;20030;-77
2022/09/18 03:02:51;;;;;;;7.60;4.47;;;10.40;99.90;;;;;;4959850;28;20019;-76
2022/09/18 03:05:16;;;;;;;9.65;4.18;;;10.40;99.90;;;;;;4946256;28;20027;-77
2022/09/18 03:07:42;;;;;;;4.43;2.95;;;10.50;99.90;;;;;;4958642;28;20046;-78
2022/09/18 03:10:08;;;;;;;7.57;4.35;;;10.50;99.90;;;;;;4960349;28;20423;-78
2022/09/18 03:12:34;;;;;;;9.93;4.32;;;10.50;99.90;;;;;;4943523;28;20035;-77
2022/09/18 03:14:59;;;;;;;10.27;4.38;;;10.50;99.90;;;;;;4944597;28;20253;-77
2022/09/18 03:17:25;;;;;;;14.95;5.88;;;10.50;99.90;;;;;;4942384;28;20035;-77
2022/09/18 03:19:50;;;;;;;5.22;3.08;;;10.50;99.90;;;;;;4960138;28;20027;-77
2022/09/18 03:22:16;;;;;;;6.70;4.50;;;10.50;99.90;;;;;;4961711;28;20023;-77
2022/09/18 03:24:41;;;;;;;10.57;4.70;;;10.50;99.90;;;;;;4943007;28;20496;-77
2022/09/18 03:27:09;;;;;;;6.95;3.63;;;10.50;99.90;;;;;;4939911;28;20028;-77
2022/09/18 03:29:34;;;;;;;7.65;3.58;;;10.50;99.90;;;;;;4957852;28;20406;-77
2022/09/18 03:32:00;;;;;;;7.50;3.33;;;10.50;99.90;;;;;;4953246;28;20110;-77
2022/09/18 03:34:26;;;;;;;6.40;3.28;;;10.50;99.90;;;;;;4971714;28;20503;-76
2022/09/18 03:36:51;;;;;;;4.80;2.60;;;10.50;99.90;;;;;;4958992;28;20118;-77
2022/09/18 03:39:17;;;;;;;10.98;4.72;;;10.50;99.90;;;;;;4964461;28;20113;-77
2022/09/18 03:41:42;;;;;;;10.65;4.55;;;10.50;99.90;;;;;;4943430;28;20513;-77
2022/09/18 03:44:08;;;;;;;12.55;3.90;;;10.50;99.90;;;;;;4962511;28;20050;-77
2022/09/18 03:46:33;;;;;;;9.85;3.20;;;10.50;99.90;;;;;;4945271;28;20388;-77
2022/09/18 03:48:59;;;;;;;9.13;4.53;;;10.50;99.90;;;;;;4928009;28;20462;-77
2022/09/18 03:51:24;;;;;;;6.80;3.78;;;10.50;99.90;;;;;;4960133;28;20042;-77
2022/09/18 03:53:50;;;;;;;7.47;3.38;;;10.50;99.90;;;;;;4956558;28;20047;-77
2022/09/18 03:56:16;;;;;;;8.85;4.00;;;10.50;99.90;;;;;;4950014;28;20066;-76
2022/09/18 03:58:41;;;;;;;13.40;3.65;;;10.50;99.90;;;;;;4965539;28;20720;-77
2022/09/18 04:01:07;;;;;;;8.10;3.58;;;10.50;99.90;;;;;;4935920;28;20038;-77
2022/09/18 04:03:33;;;;;;;9.05;3.67;;;10.50;99.90;;;;;;4948066;28;20030;-77
2022/09/18 04:05:59;;;;;;;11.20;4.22;;;10.50;99.90;;;;;;4946484;28;20483;-77
2022/09/18 04:08:25;;;;;;;3.60;2.58;;;10.50;99.90;;;;;;4965358;28;20154;-77
2022/09/18 04:10:50;;;;;;;5.40;3.95;;;10.50;99.90;;;;;;4931064;28;20546;-77
2022/09/18 04:13:16;;;;;;;9.05;4.43;;;10.60;99.90;;;;;;4967758;28;20134;-78
2022/09/18 04:15:43;;;;;;;7.43;4.45;;;10.50;99.90;;;;;;4960652;28;20035;-77
2022/09/18 04:18:09;;;;;;;7.60;3.60;;;10.50;99.90;;;;;;4959965;28;20721;-77
2022/09/18 04:20:35;;;;;;;12.48;4.07;;;10.50;99.90;;;;;;4947645;28;20115;-77
2022/09/18 04:23:00;;;;;;;5.60;3.92;;;10.50;99.90;;;;;;4960495;28;20133;-77
2022/09/18 04:25:26;;;;;;;7.40;4.00;;;10.50;99.90;;;;;;4961549;28;20517;-77
2022/09/18 04:27:52;;;;;;;8.85;4.47;;;10.50;99.90;;;;;;4961774;28;20082;-78
2022/09/18 04:30:17;;;;;;;8.25;4.60;;;10.50;99.90;;;;;;4959188;28;20454;-78
2022/09/18 04:32:44;;;;;;;7.18;4.03;;;10.50;99.90;;;;;;4947434;28;20094;-78
2022/09/18 04:35:10;;;;;;;7.40;3.80;;;10.50;99.90;;;;;;4957560;28;20037;-77
2022/09/18 04:37:35;;;;;;;10.02;5.15;;;10.50;99.90;;;;;;4948549;28;20027;-78
2022/09/18 04:40:01;;;;;;;6.15;2.90;;;10.50;99.90;;;;;;4931962;28;20035;-78
2022/09/18 04:42:27;;;;;;;9.98;3.55;;;10.50;99.90;;;;;;4950830;28;20039;-79
2022/09/18 04:44:52;;;;;;;6.32;1.42;;;10.50;99.90;;;;;;4960095;28;20743;-78
2022/09/18 04:47:18;;;;;;;7.18;3.15;;;10.50;99.90;;;;;;4965912;28;20063;-78
2022/09/18 04:49:43;;;;;;;6.45;3.75;;;10.50;99.90;;;;;;4944003;28;20030;-78
2022/09/18 04:52:09;;;;;;;7.25;3.38;;;10.50;99.90;;;;;;4937098;28;20038;-78
2022/09/18 04:54:35;;;;;;;4.10;2.35;;;10.50;99.90;;;;;;4949118;28;20037;-78
2022/09/18 04:57:00;;;;;;;9.35;3.30;;;10.50;99.90;;;;;;4929925;28;20507;-78
2022/09/18 04:59:26;;;;;;;7.85;2.83;;;10.50;99.90;;;;;;4928919;28;20440;-78
2022/09/18 05:01:51;;;;;;;6.45;2.80;;;10.50;99.90;;;;;;4944198;28;20045;-78
2022/09/18 05:04:17;;;;;;;7.72;2.55;;;10.50;99.90;;;;;;4949890;28;20041;-79
2022/09/18 05:06:42;;;;;;;13.70;2.83;;;10.50;99.90;;;;;;4943510;28;20031;-78
2022/09/18 05:09:08;;;;;;;9.32;2.75;;;10.50;99.90;;;;;;4928671;28;20038;-78
2022/09/18 05:11:33;;;;;;;6.28;2.08;;;10.40;99.90;;;;;;4947768;28;20407;-78
2022/09/18 05:13:59;;;;;;;6.85;2.00;;;10.40;99.90;;;;;;4961388;28;20035;-78
2022/09/18 05:16:25;;;;;;;11.30;2.63;;;10.50;99.90;;;;;;4948016;28;20046;-78
2022/09/18 05:18:50;;;;;;;6.55;2.10;;;10.50;99.90;;;;;;4963837;28;20118;-78
2022/09/18 05:21:16;;;;;;;6.28;2.05;;;10.50;99.90;;;;;;4962551;28;20515;-78
2022/09/18 05:23:44;;;;;;;8.10;3.40;;;10.40;99.90;;;;;;4930218;28;20038;-78
2022/09/18 05:26:10;;;;;;;7.90;2.78;;;10.40;99.90;;;;;;4931639;28;20042;-78
2022/09/18 05:28:35;;;;;;;4.25;2.20;;;10.40;99.90;;;;;;4964367;28;20046;-78
2022/09/18 05:31:01;;;;;;;6.53;2.90;;;10.40;99.90;;;;;;4947645;28;20039;-78
2022/09/18 05:33:26;;;;;;;8.20;2.50;;;10.50;99.90;;;;;;4926843;28;20033;-78
2022/09/18 05:35:53;;;;;;;4.43;2.58;;;10.50;99.90;;;;;;4962776;28;20043;-78
2022/09/18 05:38:19;;;;;;;7.45;3.97;;;10.50;99.90;;;;;;4949073;28;20497;-78
2022/09/18 05:40:44;;;;;;;6.32;3.15;;;10.40;99.90;;;;;;4929734;28;20035;-79
2022/09/18 05:43:10;;;;;;;9.50;5.43;;;10.50;99.90;;;;;;4957919;28;20533;-79
2022/09/18 05:45:36;;;;;;;10.40;4.97;;;10.50;99.90;;;;;;4928520;28;20118;-79
2022/09/18 05:48:04;;;;;;;10.43;5.72;;;10.50;99.90;;;;;;4954923;28;20123;-78
2022/09/18 05:50:31;;;;;;;10.20;5.82;;;10.50;99.90;;;;;;4928346;28;20039;-78
2022/09/18 05:52:57;;;;;;;9.15;5.25;;;10.60;99.90;;;;;;4964525;28;20276;-78
2022/09/18 05:55:23;;;;;;;11.07;6.20;;;10.60;99.90;;;;;;4959085;28;20054;-78
2022/09/18 05:57:52;;;;;;;8.35;5.95;;;10.60;99.90;;;;;;4956229;28;20032;-78
2022/09/18 06:00:17;;;;;;;10.90;5.70;;;10.60;99.90;;;;;;4949230;28;20502;-78
2022/09/18 06:02:43;;;;;;;6.50;3.42;;;10.60;99.90;;;;;;4963052;28;20122;-78
2022/09/18 06:05:09;;;;;;;8.50;6.07;;;10.60;99.90;;;;;;4938246;28;20070;-78
2022/09/18 06:07:35;;;;;;;8.65;6.15;;;10.60;99.90;;;;;;4935588;28;20024;-78
2022/09/18 06:10:03;;;;;;;10.30;6.93;;;10.60;99.90;;;;;;4940442;28;20522;-78
2022/09/18 06:12:28;;;;;;;8.70;5.63;;;10.60;99.90;;;;;;4956405;28;20085;-78
2022/09/18 06:14:54;;;;;;;11.02;4.90;;;10.80;99.90;;;;;;4949904;28;20035;-78
2022/09/18 06:17:19;;;;;;;12.23;5.88;;;10.70;99.90;;;;;;4945704;28;20035;-78
2022/09/18 06:19:45;;;;;;;12.30;6.57;;;10.70;99.90;;;;;;4948779;28;20122;-78
2022/09/18 06:22:10;;;;;;;12.10;5.82;;;10.70;99.90;;;;;;4965347;28;20062;-79
2022/09/18 06:24:36;;;;;;;10.18;6.10;;;10.70;99.90;;;;;;4930339;28;20027;-78
2022/09/18 06:27:01;;;;;;;13.68;6.32;;;10.70;99.90;;;;;;4948536;28;20076;-78
2022/09/18 06:29:27;;;;;;;10.15;6.25;;;10.70;99.90;;;;;;4958642;28;20031;-78
2022/09/18 06:31:52;;;;;;;9.45;5.55;;;10.80;99.90;;;;;;4929660;28;20039;-78
2022/09/18 06:34:18;;;;;;;7.30;4.88;;;10.80;99.90;;;;;;4946742;28;20848;-78
2022/09/18 06:36:44;;;;;;;10.88;4.53;;;10.80;99.90;;;;;;4950379;28;20054;-77
2022/09/18 06:39:09;;;;;;;10.77;4.25;;;10.90;99.90;;;;;;4961144;28;20070;-78
2022/09/18 06:41:35;;;;;;;7.32;3.53;;;10.90;99.90;;;;;;4948454;28;20041;-78
2022/09/18 06:44:01;;;;;;;6.63;4.25;;;10.90;99.90;;;;;;4958658;28;20058;-78
2022/09/18 06:46:26;;;;;;;8.27;3.90;;;11.00;99.90;;;;;;4945975;28;20023;-78
2022/09/18 06:48:52;;;;;;;4.43;3.25;;;11.00;99.90;;;;;;4943314;28;20059;-77
2022/09/18 06:51:17;;;;;;;4.85;2.72;;;11.00;99.90;;;;;;4962996;28;20034;-79
2022/09/18 06:53:43;;;;;;;12.40;3.80;;;11.00;99.90;;;;;;4941711;28;20038;-78
2022/09/18 06:56:08;;;;;;;10.85;3.80;;;11.10;99.90;;;;;;4942517;28;20108;-78
2022/09/18 06:58:34;;;;;;;9.75;4.07;;;11.00;99.90;;;;;;4958577;28;20531;-78
2022/09/18 07:00:59;;;;;;;10.75;3.10;;;11.00;99.90;;;;;;4941752;28;20529;-78
2022/09/18 07:03:25;;;;;;;7.53;3.17;;;11.00;99.90;;;;;;4961732;28;20031;-78
2022/09/18 07:05:50;;;;;;;8.05;2.97;;;11.10;99.90;;;;;;4960710;28;20035;-78
2022/09/18 07:08:16;;;;;;;6.00;2.85;;;11.10;99.90;;;;;;4962871;28;20035;-78
2022/09/18 07:10:41;;;;;;;7.25;2.80;;;11.10;99.90;;;;;;4938091;28;20109;-78
2022/09/18 07:13:07;;;;;;;6.95;2.40;;;11.10;99.90;;;;;;4960592;28;20071;-78
2022/09/18 07:15:33;;;;;;;7.18;3.42;;;11.10;99.90;;;;;;4945715;28;20028;-78
2022/09/18 07:17:59;;;;;;;8.48;3.33;;;11.20;99.90;;;;;;4946772;28;20043;-78
2022/09/18 07:20:25;;;;;;;7.32;3.33;;;11.20;99.90;;;;;;4943460;28;20459;-78
2022/09/18 07:22:55;;;;;;;11.10;4.40;;;11.20;99.90;;;;;;4928194;28;20121;-79
2022/09/18 07:25:21;;;;;;;7.35;3.30;;;11.20;99.90;;;;;;4964774;28;20039;-78
2022/09/18 07:27:47;;;;;;;5.57;3.72;;;11.30;99.90;;;;;;4961408;28;20442;-78
2022/09/18 07:30:12;;;;;;;9.13;3.95;;;11.30;99.90;;;;;;4959564;28;20516;-78
2022/09/18 07:32:38;;;;;;;6.00;2.72;;;11.30;99.90;;;;;;4925015;28;20085;-78
2022/09/18 07:35:04;;;;;;;7.65;3.15;;;11.40;99.90;;;;;;4961972;28;20479;-78
2022/09/18 07:37:30;;;;;;;3.25;2.08;;;11.40;99.90;;;;;;4960258;28;20554;-78
2022/09/18 07:39:56;;;;;;;3.47;1.92;;;11.40;99.90;;;;;;4962003;28;20086;-78
2022/09/18 07:42:22;;;;;;;9.07;2.00;;;11.40;99.90;;;;;;4920089;28;20412;-79
2022/09/18 07:44:48;;;;;;;3.97;2.08;;;11.40;99.90;;;;;;4960793;28;20502;-79
2022/09/18 07:47:14;;;;;;;3.95;1.60;;;11.40;99.90;;;;;;4929245;28;20031;-78
2022/09/18 07:49:39;;;;;;;2.85;0.82;;;11.50;99.90;;;;;;4948382;28;20031;-79
2022/09/18 07:52:05;;;;;;;4.35;1.80;;;11.60;99.90;;;;;;4944458;28;20042;-79
2022/09/18 07:54:31;;;;;;;6.97;1.27;;;11.60;99.90;;;;;;4928353;28;20035;-79
2022/09/18 07:56:56;;;;;;;6.18;1.38;;;11.70;99.90;;;;;;4958701;28;20097;-79
2022/09/18 07:59:22;;;;;;;2.80;1.52;;;11.80;99.90;;;;;;4964484;28;20121;-80
2022/09/18 08:01:47;;;;;;;3.00;1.15;;;11.90;99.90;;;;;;4942389;28;20030;-79
2022/09/18 08:04:13;;;;;;;3.53;1.00;;;11.90;99.90;;;;;;4943806;28;20035;-80
2022/09/18 08:06:38;;;;;;;1.23;0.90;;;11.90;99.90;;;;;;4941994;28;20035;-80
2022/09/18 08:09:04;;;;;;;3.45;0.80;;;12.00;99.90;;;;;;4958081;28;20030;-80
2022/09/18 08:11:30;;;;;;;2.25;1.00;;;12.10;99.90;;;;;;4938429;28;20031;-79
2022/09/18 08:13:55;;;;;;;3.50;1.08;;;12.20;99.90;;;;;;4956624;28;20149;-80
2022/09/18 08:16:21;;;;;;;3.00;0.80;;;12.20;99.90;;;;;;4946772;28;20034;-79
2022/09/18 08:18:47;;;;;;;2.30;0.98;;;12.20;99.90;;;;;;4954726;28;20049;-80
2022/09/18 08:21:13;;;;;;;1.92;0.85;;;12.30;99.90;;;;;;4940771;28;20031;-79
2022/09/18 08:23:38;;;;;;;3.88;0.90;;;12.30;99.90;;;;;;4944989;28;20081;-80
2022/09/18 08:26:04;;;;;;;5.03;1.25;;;12.30;99.90;;;;;;4942212;28;20038;-79
2022/09/18 08:28:30;;;;;;;6.03;2.05;;;12.30;99.90;;;;;;4924665;28;20104;-80
2022/09/18 08:30:56;;;;;;;8.65;2.13;;;12.30;99.90;;;;;;4943675;28;20094;-80
2022/09/18 08:33:22;;;;;;;6.50;3.25;;;12.30;99.90;;;;;;4946044;28;20494;-80
2022/09/18 08:35:47;;;;;;;5.75;3.25;;;12.30;99.90;;;;;;4961323;28;20101;-80
2022/09/18 08:38:13;;;;;;;4.75;1.90;;;12.30;99.90;;;;;;4926862;28;20514;-79
2022/09/18 08:40:41;;;;;;;8.63;4.53;;;12.30;99.90;;;;;;4942942;28;20484;-80
2022/09/18 08:43:35;;;;;;;4.55;2.67;;;12.40;99.90;;;;;;4963102;28;20474;-80
2022/09/18 08:46:10;;;;;;;3.22;2.20;;;12.40;99.90;;;;;;4947303;28;20491;-80
2022/09/18 08:48:42;;;;;;;4.80;2.03;;;12.40;99.90;;;;;;4945854;28;20033;-80
2022/09/18 08:51:21;;;;;;;3.40;2.13;;;12.40;99.90;;;;;;4947375;28;20046;-79
2022/09/18 08:53:49;;;;;;;1.95;1.30;;;12.40;99.90;;;;;;4949159;28;20068;-80
2022/09/18 08:56:19;;;;;;;7.75;2.47;;;12.40;99.90;;;;;;4946935;28;20035;-80
2022/09/18 08:58:55;;;;;;;7.45;2.15;;;12.50;99.90;;;;;;4964626;28;20038;-79
2022/09/18 09:01:21;;;;;;;3.15;1.55;;;12.40;99.90;;;;;;4943411;28;20460;-80
2022/09/18 09:03:50;;;;;;;6.95;2.10;;;12.50;99.90;;;;;;4931373;28;20030;-80
2022/09/18 09:06:49;;;;;;;6.80;2.00;;;12.40;99.90;;;;;;4961178;28;20122;-80
2022/09/18 09:09:36;;;;;;;5.22;1.63;;;12.40;99.90;;;;;;4972620;28;20432;-80
2022/09/18 09:12:38;;;;;;;4.78;1.83;;;12.40;99.90;;;;;;4956904;28;20146;-80
2022/09/18 09:15:25;;;;;;;6.57;1.50;;;12.40;99.90;;;;;;4959619;28;20487;-80
2022/09/18 09:18:12;;;;;;;5.28;1.70;;;12.30;99.90;;;;;;4961372;28;20508;-80
2022/09/18 09:20:51;;;;;;;6.72;1.60;;;12.40;99.90;;;;;;4952501;28;20035;-80
2022/09/18 09:24:04;;;;;;;4.68;1.55;;;12.40;99.90;;;;;;4950974;28;20507;-81
2022/09/18 09:26:31;;;;;;;5.07;1.67;;;12.50;99.90;;;;;;4946432;28;20039;-81
2022/09/18 09:29:05;;;;;;;2.50;1.40;;;12.60;99.90;;;;;;4940363;28;20366;-81
2022/09/18 09:31:45;;;;;;;3.78;1.75;;;12.60;99.90;;;;;;4940288;28;20039;-80
2022/09/18 09:34:33;;;;;;;3.40;1.83;;;12.60;99.90;;;;;;4956379;28;20086;-80
2022/09/18 09:37:01;;;;;;;3.88;1.85;;;12.60;99.90;;;;;;4935462;28;20145;-80
2022/09/18 09:39:27;;;;;;;6.30;2.28;;;12.70;99.90;;;;;;4962996;28;20487;-82
2022/09/18 09:41:54;;;;;;;4.43;2.03;;;12.70;99.90;;;;;;4964566;28;20062;-79
2022/09/18 09:44:31;;;;;;;4.22;1.80;;;12.80;99.90;;;;;;4949409;28;20026;-79
2022/09/18 09:47:12;;;;;;;4.32;2.30;;;12.80;99.90;;;;;;4964578;28;20050;-79
2022/09/18 09:50:02;;;;;;;5.10;2.25;;;12.90;99.90;;;;;;4964452;28;20589;-79
2022/09/18 09:52:27;;;;;;;8.00;1.88;;;12.90;99.90;;;;;;4946369;28;20035;-78
2022/09/18 09:55:18;;;;;;;6.18;2.60;;;12.90;99.90;;;;;;4943136;28;20043;-79
2022/09/18 09:58:14;;;;;;;9.15;2.67;;;12.80;99.90;;;;;;4949902;28;20031;-78
2022/09/18 10:00:48;;;;;;;7.22;2.42;;;12.80;99.90;;;;;;4964688;28;20577;-79
2022/09/18 10:03:34;;;;;;;6.97;2.13;;;12.80;99.90;;;;;;4944141;28;20761;-79
2022/09/18 10:06:15;;;;;;;20.40;2.78;;;12.80;99.90;;;;;;4949598;28;20031;-80
2022/09/18 10:08:50;;;;;;;10.07;3.10;;;12.70;99.90;;;;;;4949452;28;21060;-79
2022/09/18 10:11:16;;;;;;;24.33;3.97;;;12.60;99.90;;;;;;4942341;28;20024;-80
2022/09/18 10:14:03;;;;;;;9.65;1.55;;;12.60;99.90;;;;;;4932144;28;20027;-80
2022/09/18 10:16:34;;;;;;;5.05;0.77;;;12.40;99.90;;;;;;4960135;28;20030;-80
2022/09/18 10:19:00;;;;;;;14.55;1.00;;;12.20;99.90;;;;;;4944489;28;20035;-80
2022/09/18 10:21:27;;;;;;;81.72;3.53;;;12.00;99.90;;;;;;4946357;28;20038;-80
2022/09/18 10:24:23;;;;;;;60.42;2.13;;;11.90;99.90;;;;;;4961395;28;20804;-79
2022/09/18 10:26:52;;;;;;;10.90;1.23;;;11.70;99.90;;;;;;4957332;28;20539;-78
2022/09/18 10:29:18;;;;;;;4.80;0.88;;;11.20;99.90;;;;;;4946745;28;20376;-79
2022/09/18 10:31:51;;;;;;;1.70;0.85;;;11.10;99.90;;;;;;4934456;28;20049;-79
2022/09/18 10:34:36;;;;;;;3.40;1.00;;;11.10;99.90;;;;;;4941198;28;20038;-78
2022/09/18 10:37:02;;;;;;;2.92;0.50;;;11.10;99.90;;;;;;4955314;28;20049;-79
2022/09/18 10:39:32;;;;;;;9.52;0.90;;;11.20;99.90;;;;;;4943507;28;20483;-79
2022/09/18 10:42:03;;;;;;;2.95;0.60;;;11.20;99.90;;;;;;4928428;28;20039;-79
2022/09/18 10:44:29;;;;;;;2.22;0.70;;;11.30;99.90;;;;;;4931992;28;20439;-79
2022/09/18 10:46:57;;;;;;;9.45;0.60;;;11.30;99.90;;;;;;4947993;28;20059;-79
2022/09/18 10:49:31;;;;;;;4.15;1.15;;;11.40;99.90;;;;;;4945917;28;20102;-79
2022/09/18 10:52:41;;;;;;;2.25;0.50;;;11.40;99.90;;;;;;4947323;28;20434;-79
2022/09/18 10:55:09;;;;;;;2.88;0.57;;;11.50;99.90;;;;;;4963322;28;20039;-79
2022/09/18 10:57:39;;;;;;;4.70;0.80;;;11.50;99.90;;;;;;4942794;28;20391;-79
2022/09/18 11:00:11;;;;;;;1.40;0.70;;;11.60;99.90;;;;;;4930036;28;21180;-79
2022/09/18 11:02:51;;;;;;;2.88;1.02;;;11.60;99.90;;;;;;4958319;28;20049;-79
2022/09/18 11:05:28;;;;;;;2.47;0.77;;;11.60;99.90;;;;;;4959620;28;20031;-78
2022/09/18 11:07:55;;;;;;;2.35;0.75;;;11.60;99.90;;;;;;4944330;28;20073;-79
2022/09/18 11:10:23;;;;;;;1.92;0.50;;;11.60;99.90;;;;;;4963237;28;20117;-78
2022/09/18 11:12:53;;;;;;;1.58;0.70;;;11.70;99.90;;;;;;4954518;28;20035;-78
2022/09/18 11:15:19;;;;;;;2.15;0.70;;;11.80;99.90;;;;;;4945564;28;20061;-78
2022/09/18 11:17:51;;;;;;;2.78;0.85;;;12.00;99.90;;;;;;4948933;28;20191;-78
2022/09/18 11:20:24;;;;;;;2.67;1.02;;;12.10;99.90;;;;;;4932640;28;20023;-78
2022/09/18 11:22:50;;;;;;;1.65;0.63;;;12.20;99.90;;;;;;4930027;28;20065;-79
2022/09/18 11:25:20;;;;;;;1.55;0.73;;;12.30;99.90;;;;;;4931855;28;20484;-78
2022/09/18 11:27:52;;;;;;;3.47;0.77;;;12.30;99.90;;;;;;4961675;28;20498;-78
2022/09/18 11:30:29;;;;;;;6.35;0.98;;;12.40;99.90;;;;;;4948052;28;20033;-78
2022/09/18 11:33:22;;;;;;;3.33;1.00;;;12.50;99.90;;;;;;4922820;28;20070;-78
2022/09/18 11:35:51;;;;;;;3.53;1.70;;;12.60;99.90;;;;;;4959959;28;20571;-78
2022/09/18 11:38:18;;;;;;;4.18;1.15;;;12.60;99.90;;;;;;4925324;28;20513;-78
2022/09/18 11:40:54;;;;;;;3.20;1.10;;;12.60;99.90;;;;;;4945299;28;20026;-78
2022/09/18 11:43:27;;;;;;;5.15;1.25;;;12.60;99.90;;;;;;4941793;28;20027;-79
2022/09/18 11:46:12;;;;;;;4.18;1.30;;;12.60;99.90;;;;;;4950003;28;20043;-78
2022/09/18 11:48:40;;;;;;;6.40;2.05;;;12.60;99.90;;;;;;4960474;28;20039;-78
2022/09/18 11:51:32;;;;;;;10.23;2.17;;;12.60;99.90;;;;;;4929660;28;20036;-78
2022/09/18 11:54:06;;;;;;;3.40;1.35;;;12.60;99.90;;;;;;4953554;28;20074;-78
2022/09/18 11:56:35;;;;;;;2.60;1.13;;;12.60;99.90;;;;;;4957433;28;20034;-79
2022/09/18 11:59:22;;;;;;;4.35;1.90;;;12.60;99.90;;;;;;4940477;28;20439;-78
2022/09/18 12:01:51;;;;;;;4.93;1.85;;;12.60;99.90;;;;;;4945569;28;20034;-78
2022/09/18 12:04:46;;;;;;;4.15;1.35;;;12.60;99.90;;;;;;4939789;28;20407;-78
2022/09/18 12:07:24;;;;;;;1.65;1.15;;;12.70;99.90;;;;;;4609741;28;10000492;-78
2022/09/18 12:09:54;;;;;;;3.00;1.58;;;12.70;99.90;;;;;;4958287;28;20043;-79
2022/09/18 12:12:47;;;;;;;7.50;2.55;;;12.70;99.90;;;;;;4956626;28;20238;-79
2022/09/18 12:15:19;;;;;;;5.63;2.00;;;12.70;99.90;;;;;;4933149;28;20129;-79
2022/09/18 12:18:17;;;;;;;7.13;1.50;;;12.80;99.90;;;;;;4925365;28;21172;-78
2022/09/18 12:21:04;;;;;;;4.13;1.50;;;12.80;99.90;;;;;;4927307;28;20035;-79
2022/09/18 12:23:30;;;;;;;4.55;1.30;;;12.80;99.90;;;;;;4916561;28;20392;-79
2022/09/18 12:26:14;;;;;;;5.07;1.60;;;12.80;99.90;;;;;;4925382;28;20738;-78
2022/09/18 12:29:04;;;;;;;5.75;1.73;;;12.80;99.90;;;;;;4952131;28;20028;-78
2022/09/18 12:31:50;;;;;;;1.75;1.20;;;12.80;99.90;;;;;;4941041;28;20118;-79
2022/09/18 12:34:31;;;;;;;4.70;1.50;;;12.70;99.90;;;;;;4963124;28;20491;-78
2022/09/18 12:37:16;;;;;;;3.70;1.40;;;12.80;99.90;;;;;;4976424;28;20495;-78
2022/09/18 12:40:00;;;;;;;3.65;1.52;;;12.80;99.90;;;;;;4940796;28;20027;-78
2022/09/18 12:42:32;;;;;;;4.05;1.52;;;12.80;99.90;;;;;;4960394;28;20049;-78
2022/09/18 12:45:37;;;;;;;2.28;1.20;;;12.80;99.90;;;;;;4962090;28;20023;-79
2022/09/18 12:48:02;;;;;;;5.22;1.90;;;12.80;99.90;;;;;;4948242;28;20066;-79
2022/09/18 12:50:47;;;;;;;3.88;1.10;;;12.70;99.90;;;;;;4960591;28;20027;-79
2022/09/18 12:53:12;;;;;;;5.75;3.33;;;12.80;99.90;;;;;;4961375;28;20027;-79
2022/09/18 12:56:12;;;;;;;1.67;1.02;;;12.80;99.90;;;;;;4957065;28;20105;-79
2022/09/18 12:58:37;;;;;;;6.70;1.73;;;12.70;99.90;;;;;;4966561;28;20035;-79
2022/09/18 13:01:19;;;;;;;4.32;1.48;;;12.80;99.90;;;;;;4959775;28;20496;-79
2022/09/18 13:03:45;;;;;;;3.15;1.33;;;12.70;99.90;;;;;;4947392;28;20069;-79
2022/09/18 13:06:15;;;;;;;5.05;1.77;;;12.70;99.90;;;;;;4928736;28;20058;-80